createdAt,value
2018-10-07T00:01:10.497Z,86.00
2018-10-07T00:03:43.048Z,85.40
2018-10-07T00:06:16.707Z,85.40
2018-10-07T00:08:48.607Z,85.60
2018-10-07T00:11:21.181Z,85.90
2018-10-07T00:13:53.457Z,85.80
2018-10-07T00:16:25.588Z,86.30
2018-10-07T00:18:57.950Z,86.50
2018-10-07T00:21:32.777Z,87.00
2018-10-07T00:24:05.667Z,86.20
2018-10-07T00:26:37.737Z,85.80
2018-10-07T00:29:12.068Z,85.70
2018-10-07T00:31:50.287Z,85.70
2018-10-07T00:34:27.167Z,86.20
2018-10-07T00:37:06.598Z,86.40
2018-10-07T00:42:50.498Z,87.10
2018-10-07T00:45:25.108Z,87.30
2018-10-07T00:47:57.050Z,87.00
2018-10-07T00:50:30.889Z,86.90
2018-10-07T00:53:05.890Z,86.90
2018-10-07T00:55:39.339Z,87.30
2018-10-07T00:58:10.460Z,87.50
2018-10-07T01:00:51.490Z,87.40
2018-10-07T01:03:27.979Z,87.30
2018-10-07T09:08:12.038Z,91.10
2018-10-07T09:10:43.677Z,91.00
2018-10-07T09:13:14.868Z,91.20
2018-10-07T09:15:44.939Z,91.20
2018-10-07T09:18:16.449Z,91.20
2018-10-07T09:20:46.657Z,91.00
2018-10-07T09:23:16.967Z,90.80
2018-10-07T09:25:47.311Z,90.60
2018-10-07T09:28:21.309Z,90.70
2018-10-07T09:30:54.530Z,90.50
2018-10-07T09:33:26.748Z,90.10
2018-10-07T09:42:40.407Z,90.70
2018-10-07T09:45:12.908Z,90.90
2018-10-07T09:47:56.765Z,90.90
2018-10-07T09:50:29.169Z,90.80
2018-10-07T09:53:00.760Z,90.80
2018-10-07T09:55:34.678Z,91.00
2018-10-07T09:58:05.136Z,90.90
2018-10-07T10:00:40.378Z,91.00
2018-10-07T10:03:12.268Z,91.20
2018-10-07T10:05:44.919Z,90.90
2018-10-07T10:08:16.499Z,90.70
2018-10-07T10:10:48.558Z,90.50
2018-10-07T10:13:39.797Z,90.50
2018-10-07T10:16:35.849Z,90.70
2018-10-07T10:19:09.498Z,91.10
2018-10-07T10:31:09.879Z,90.70
2018-10-07T10:33:45.579Z,90.80
2018-10-07T10:36:26.359Z,90.80
2018-10-07T10:39:11.168Z,90.80
2018-10-07T10:41:49.578Z,90.60
2018-10-07T10:44:42.430Z,90.60
2018-10-07T10:47:49.948Z,90.80
2018-10-07T10:51:31.315Z,90.60
2018-10-07T10:54:11.867Z,90.70
2018-10-07T10:57:04.087Z,90.50
2018-10-07T10:59:52.065Z,90.30
2018-10-07T11:02:35.805Z,90.20
2018-10-07T11:05:21.005Z,90.40
2018-10-07T11:08:11.376Z,90.60
2018-10-07T11:10:51.196Z,90.40
2018-10-07T11:13:59.783Z,90.90
2018-10-07T11:18:43.687Z,90.30
2018-10-07T11:21:34.615Z,90.40
2018-10-07T11:24:22.386Z,89.60
2018-10-07T11:27:12.836Z,89.60
2018-10-07T11:30:22.955Z,89.20
2018-10-07T11:33:02.437Z,89.10
2018-10-07T11:35:42.040Z,88.30
2018-10-07T11:40:26.880Z,87.90
2018-10-07T11:43:39.451Z,87.50
2018-10-07T11:46:14.962Z,87.00
2018-10-07T11:49:21.321Z,87.60
2018-10-07T11:52:24.391Z,87.60
2018-10-07T11:55:13.121Z,87.50
2018-10-07T11:57:44.705Z,87.90
2018-10-07T12:00:16.210Z,88.90
2018-10-07T12:02:48.115Z,89.10
2018-10-07T12:05:19.340Z,89.10
2018-10-07T12:07:51.470Z,89.50
2018-10-07T12:10:43.080Z,89.80
2018-10-07T12:13:14.492Z,90.00
2018-10-07T12:15:46.401Z,90.20
2018-10-07T12:18:17.950Z,90.20
2018-10-07T12:20:50.040Z,90.10
2018-10-07T12:23:23.853Z,89.70
2018-10-07T12:25:55.290Z,89.90
2018-10-07T12:28:27.770Z,88.90
2018-10-07T12:30:59.530Z,88.30
2018-10-07T12:33:30.932Z,86.90
2018-10-07T12:36:02.740Z,86.90
2018-10-07T12:38:34.591Z,87.30
2018-10-07T12:41:05.959Z,87.70
2018-10-07T12:43:38.310Z,88.00
2018-10-07T12:46:10.421Z,88.00
2018-10-07T12:48:42.930Z,88.60
2018-10-07T12:51:14.221Z,88.90
2018-10-07T12:53:44.911Z,89.00
2018-10-07T12:56:16.631Z,88.80
2018-10-07T12:58:51.441Z,89.30
2018-10-07T13:01:23.880Z,90.20
2018-10-07T13:03:55.791Z,90.60
2018-10-07T13:06:27.510Z,90.90
2018-10-07T13:08:59.101Z,91.30
2018-10-07T13:11:31.144Z,91.50
2018-10-07T13:14:03.060Z,91.50
2018-10-07T13:16:34.450Z,91.30
2018-10-07T13:19:04.776Z,91.00
2018-10-07T13:21:37.420Z,90.90
2018-10-07T13:24:09.840Z,90.90
2018-10-07T13:26:41.080Z,90.70
2018-10-07T13:29:13.901Z,90.60
2018-10-07T13:31:45.340Z,90.50
2018-10-07T13:34:17.619Z,90.60
2018-10-07T13:36:49.470Z,90.50
2018-10-07T13:39:21.548Z,90.40
2018-10-07T13:41:51.579Z,90.60
2018-10-07T13:44:23.020Z,90.90
2018-10-07T13:46:54.880Z,90.90
2018-10-07T13:49:27.182Z,90.80
2018-10-07T13:52:00.150Z,90.70
2018-10-07T13:54:32.370Z,90.80
2018-10-07T13:57:04.100Z,90.50
2018-10-07T13:59:35.780Z,90.30
2018-10-07T14:02:07.390Z,90.20
2018-10-07T14:04:38.530Z,90.00
2018-10-07T14:07:09.719Z,90.00
2018-10-07T14:09:39.560Z,90.10
2018-10-07T14:12:09.420Z,90.20
2018-10-07T14:14:40.129Z,90.30
2018-10-07T14:17:10.800Z,90.30
2018-10-07T14:19:42.190Z,90.40
2018-10-07T14:22:14.891Z,90.50
2018-10-07T14:24:45.640Z,90.60
2018-10-07T14:27:16.785Z,91.00
2018-10-07T14:29:48.560Z,91.30
2018-10-07T14:32:19.920Z,91.50
2018-10-07T14:34:51.240Z,91.60
2018-10-07T14:37:22.554Z,91.30
2018-10-07T14:39:55.453Z,91.40
2018-10-07T14:42:25.482Z,91.10
2018-10-07T14:44:57.740Z,90.60
2018-10-07T14:47:29.409Z,90.90
2018-10-07T14:50:01.254Z,90.70
2018-10-07T14:52:34.230Z,90.80
2018-10-07T14:55:06.065Z,91.00
2018-10-07T14:57:37.480Z,91.00
2018-10-07T15:00:10.100Z,90.90
2018-10-07T15:02:41.390Z,90.80
2018-10-07T15:05:11.620Z,91.00
2018-10-07T15:07:41.780Z,91.00
2018-10-07T15:10:14.521Z,91.00
2018-10-07T15:12:45.972Z,91.00
2018-10-07T15:15:17.771Z,90.80
2018-10-07T15:17:49.129Z,90.30
2018-10-07T15:20:20.940Z,90.40
2018-10-07T15:22:52.520Z,90.60
2018-10-07T15:25:22.460Z,90.50
2018-10-07T15:27:55.015Z,90.60
2018-10-07T15:30:27.943Z,90.80
2018-10-07T15:32:58.951Z,90.70
2018-10-07T15:35:32.803Z,90.60
2018-10-07T15:38:04.051Z,90.50
2018-10-07T15:40:36.759Z,90.40
2018-10-07T15:43:08.239Z,90.30
2018-10-07T15:45:42.281Z,90.20
2018-10-07T15:48:21.562Z,90.10
2018-10-07T15:50:55.700Z,90.10
2018-10-07T15:53:30.768Z,90.10
2018-10-07T15:56:06.623Z,90.00
2018-10-07T15:58:42.695Z,90.10
2018-10-07T16:01:21.392Z,90.00
2018-10-07T16:03:54.789Z,89.50
2018-10-07T16:06:31.780Z,89.20
2018-10-07T16:09:08.660Z,89.10
2018-10-07T16:11:48.792Z,89.00
2018-10-07T16:14:24.500Z,89.10
2018-10-07T16:16:59.399Z,89.40
2018-10-07T16:19:35.693Z,89.50
2018-10-07T16:22:13.241Z,89.60
2018-10-07T16:24:46.210Z,89.50
2018-10-07T16:27:20.929Z,89.60
2018-10-07T16:30:00.080Z,89.60
2018-10-07T16:32:37.867Z,89.70
2018-10-07T16:35:13.840Z,89.70
2018-10-07T16:37:48.350Z,89.70
2018-10-07T16:40:18.981Z,90.00
2018-10-07T16:42:54.321Z,90.00
2018-10-07T16:45:28.863Z,89.50
2018-10-07T16:48:02.849Z,89.50
2018-10-07T16:50:37.900Z,89.70
2018-10-07T16:53:11.921Z,89.70
2018-10-07T16:55:46.270Z,90.00
2018-10-07T16:58:19.329Z,89.80
2018-10-07T17:00:53.280Z,89.60
2018-10-07T17:03:28.412Z,89.70
2018-10-07T17:06:02.174Z,89.50
2018-10-07T17:08:36.789Z,89.70
2018-10-07T17:11:11.424Z,89.80
2018-10-07T17:13:44.649Z,90.00
2018-10-07T17:16:20.819Z,90.00
2018-10-07T17:18:56.960Z,90.00
2018-10-07T17:21:30.964Z,90.10
2018-10-07T17:24:05.080Z,90.20
2018-10-07T17:26:39.299Z,90.30
2018-10-07T17:29:14.139Z,90.40
2018-10-07T17:31:46.550Z,90.50
2018-10-07T17:34:20.632Z,90.40
2018-10-07T17:36:56.114Z,90.30
2018-10-07T17:39:29.371Z,90.20
2018-10-07T17:42:03.330Z,90.20
2018-10-07T17:44:35.820Z,90.20
2018-10-07T17:47:11.330Z,90.30
2018-10-07T17:49:44.139Z,90.30
2018-10-07T17:52:20.600Z,90.40
2018-10-07T17:54:56.792Z,90.20
2018-10-07T17:57:30.861Z,90.20
2018-10-07T18:00:04.711Z,90.10
2018-10-07T18:02:38.473Z,90.10
2018-10-07T18:05:09.451Z,90.20
2018-10-07T18:07:42.339Z,90.00
2018-10-07T18:10:21.840Z,90.00
2018-10-07T18:12:56.830Z,90.00
2018-10-07T18:15:36.240Z,89.90
2018-10-07T18:18:14.590Z,90.00
2018-10-07T18:20:56.460Z,90.20
2018-10-07T18:23:39.570Z,90.10
2018-10-07T18:26:17.210Z,90.20
2018-10-07T18:28:53.870Z,90.20
2018-10-07T18:31:30.401Z,90.10
2018-10-07T18:34:13.042Z,90.20
2018-10-07T18:36:52.210Z,90.20
2018-10-07T18:39:26.980Z,90.20
2018-10-07T18:42:14.120Z,90.20
2018-10-07T18:44:57.536Z,90.20
2018-10-07T18:47:48.209Z,90.30
2018-10-07T18:50:38.740Z,90.40
2018-10-07T18:56:08.614Z,90.20
2018-10-07T18:58:48.480Z,90.10
2018-10-07T19:01:29.169Z,89.70
2018-10-07T19:04:09.008Z,89.60
2018-10-07T19:06:46.730Z,89.80
2018-10-07T19:09:24.449Z,89.80
2018-10-07T19:11:58.511Z,89.90
2018-10-07T19:14:32.428Z,90.00
2018-10-07T19:17:06.033Z,90.00
2018-10-07T19:19:38.030Z,90.00
2018-10-07T19:22:08.893Z,90.00
2018-10-07T19:24:40.270Z,90.00
2018-10-07T19:27:11.220Z,90.00
2018-10-07T19:29:42.297Z,90.10
2018-10-07T19:32:12.880Z,90.10
2018-10-07T19:34:44.740Z,90.10
2018-10-07T19:37:16.091Z,89.90
2018-10-07T19:39:47.584Z,89.60
2018-10-07T19:42:19.360Z,90.00
2018-10-07T19:44:50.665Z,90.10
2018-10-07T19:47:22.432Z,90.20
2018-10-07T19:49:57.901Z,90.20
2018-10-07T19:52:33.192Z,90.40
2018-10-07T19:55:11.366Z,90.20
2018-10-07T19:57:50.392Z,90.10
2018-10-07T20:00:39.238Z,90.10
2018-10-07T20:03:16.579Z,90.10
2018-10-07T20:05:53.549Z,90.20
2018-10-07T20:08:31.260Z,90.30
2018-10-07T20:11:09.509Z,90.10
2018-10-07T20:13:46.500Z,90.00
2018-10-07T20:16:19.510Z,89.80
2018-10-07T20:18:58.140Z,89.80
2018-10-07T20:21:35.331Z,90.00
2018-10-07T20:24:10.212Z,90.00
2018-10-07T20:26:43.453Z,90.10
2018-10-07T20:29:19.515Z,90.00
2018-10-07T20:31:59.241Z,90.10
2018-10-07T20:34:38.798Z,90.10
2018-10-07T20:37:15.870Z,90.10
2018-10-07T20:39:51.793Z,90.10
2018-10-07T20:42:26.882Z,90.20
2018-10-07T20:45:00.741Z,90.20
2018-10-07T20:47:35.150Z,90.20
2018-10-07T20:50:08.990Z,90.30
2018-10-07T20:52:44.020Z,90.30
2018-10-07T20:55:22.281Z,90.40
2018-10-07T20:57:59.030Z,90.50
2018-10-07T21:00:33.829Z,90.50
2018-10-07T21:03:07.974Z,90.30
2018-10-07T21:05:42.720Z,90.30
2018-10-07T21:08:20.749Z,90.30
2018-10-07T21:10:55.424Z,90.30
2018-10-07T21:13:29.625Z,90.40
2018-10-07T21:16:04.640Z,90.40
2018-10-07T21:18:41.890Z,90.50
2018-10-07T21:21:16.689Z,90.50
2018-10-07T21:23:51.413Z,90.50
2018-10-07T21:26:25.980Z,90.60
2018-10-07T21:28:57.540Z,90.50
2018-10-07T21:31:38.490Z,90.30
2018-10-07T21:34:14.903Z,90.40
2018-10-07T21:36:50.081Z,90.50
2018-10-07T21:39:24.031Z,90.60
2018-10-07T21:41:58.479Z,90.50
2018-10-07T21:44:36.280Z,90.40
2018-10-07T21:47:14.392Z,90.40
2018-10-07T21:49:45.849Z,90.40
2018-10-07T21:52:17.657Z,90.30
2018-10-07T21:54:49.221Z,90.30
2018-10-07T21:57:20.526Z,90.40
2018-10-07T21:59:51.102Z,90.40
2018-10-07T22:02:22.450Z,90.70
2018-10-07T22:04:54.619Z,90.50
2018-10-07T22:07:25.890Z,90.60
2018-10-07T22:09:57.634Z,90.70
2018-10-07T22:12:29.103Z,90.70
2018-10-07T22:14:59.880Z,90.60
2018-10-07T22:17:31.389Z,90.60
2018-10-07T22:20:04.550Z,90.60
2018-10-07T22:22:35.760Z,90.60
2018-10-07T22:25:07.230Z,90.60
2018-10-07T22:27:38.990Z,90.50
2018-10-07T22:30:10.220Z,90.50
2018-10-07T22:32:42.820Z,90.70
2018-10-07T22:35:14.549Z,90.50
2018-10-07T22:37:45.220Z,90.30
2018-10-07T22:40:18.690Z,90.40
2018-10-07T22:42:50.360Z,90.60
2018-10-07T22:45:22.052Z,90.50
2018-10-07T22:47:53.270Z,90.50
2018-10-07T22:50:24.349Z,90.50
2018-10-07T22:52:55.130Z,90.50
2018-10-07T22:55:26.680Z,90.50
2018-10-07T22:57:58.230Z,90.60
2018-10-07T23:00:30.163Z,90.60
2018-10-07T23:03:01.230Z,90.50
2018-10-07T23:05:32.780Z,90.50
2018-10-07T23:08:03.959Z,90.60
2018-10-07T23:10:36.419Z,90.60
2018-10-07T23:13:08.230Z,90.60
2018-10-07T23:15:39.441Z,90.70
2018-10-07T23:18:11.399Z,90.70
2018-10-07T23:20:42.699Z,90.60
2018-10-07T23:23:15.530Z,90.60
2018-10-07T23:25:46.090Z,90.50
2018-10-07T23:28:17.379Z,90.60
2018-10-07T23:30:48.590Z,90.40
2018-10-07T23:33:18.940Z,90.40
2018-10-07T23:35:50.620Z,90.60
2018-10-07T23:38:22.189Z,90.70
2018-10-07T23:40:56.093Z,90.90
2018-10-07T23:43:26.920Z,90.60
2018-10-07T23:45:57.750Z,90.70
2018-10-07T23:48:28.230Z,90.70
2018-10-07T23:51:01.641Z,90.60
2018-10-07T23:53:33.300Z,90.70
2018-10-07T23:56:04.580Z,90.80
2018-10-07T23:58:35.179Z,90.80
